Terminal Aerodrome Forecast
Issued by NWS Tulsa, OK

Home | Current Version | Previous Version | Text Only | Print | Product List | Glossary On
Versions: 1 2 3 4 5 6 7 8 9 10 11 12 13 14
000
FTUS44 KTSA 221137
TAFFSM
TAF
KFSM 221137Z 2212/2312 10006KT P6SM BKN250
     FM230100 10003KT P6SM BKN120 PROB30 2306/2312 5SM -SHRA BKN050=

USA.gov is the U.S. government's official web portal to all federal, state and local government web resources and services.